Morganton, North Carolina
Current Conditions -  °F | °C
As of 11:15 AM on Wednesday 28 Jan 2015 (Local Time) from KMRN Reporting Station
Clear Clear  
Wind Chill: 40°   Ceiling: Unl
Heat Index: 40°   Visibility: 10mi
Dew Point: 12°   Wind: 0mph
Humidity: 32%   Direction: NA
Pressure: 30.28"   Gusts: NA
Location:  35.75°N, 81.68°W
Report Text: KMRN 281615Z AUTO 00000KT 10SM CLR 04/M11 A3028 RMK AO2 T00441109
Loading
Personal Weather Stations






























Interactive Weather Map New forecast layout! Learn more

10-Day Weather Forecast

Advertisements
Track Severe Weather on mobile